createdAt,value
2023-01-28T00:01:15.867Z,96225.28
2023-01-28T00:03:43.406Z,96221.72
2023-01-28T00:06:14.486Z,96224.47
2023-01-28T00:08:42.191Z,96224.31
2023-01-28T00:11:12.072Z,96228.66
2023-01-28T00:13:39.980Z,96230.41
2023-01-28T00:16:10.019Z,96225.59
2023-01-28T00:18:37.913Z,96232.34
2023-01-28T00:21:11.131Z,96233.00
2023-01-28T00:23:39.962Z,96230.06
2023-01-28T00:26:10.515Z,96235.03
2023-01-28T00:28:41.434Z,96234.25
2023-01-28T00:31:17.290Z,96235.50
2023-01-28T00:33:46.083Z,96229.72
2023-01-28T00:36:13.983Z,96235.34
2023-01-28T00:38:43.029Z,96238.53
2023-01-28T00:41:12.527Z,96236.59
2023-01-28T00:43:41.015Z,96240.94
2023-01-28T00:46:10.944Z,96235.47
2023-01-28T00:48:39.098Z,96243.81
2023-01-28T00:51:07.692Z,96243.47
2023-01-28T00:53:36.431Z,96242.66
2023-01-28T00:56:05.613Z,96240.56
2023-01-28T00:58:33.773Z,96248.28
2023-01-28T01:01:22.563Z,96249.88
2023-01-28T01:03:57.791Z,96244.91
2023-01-28T01:06:25.796Z,96247.94
2023-01-28T01:08:52.754Z,96249.88
2023-01-28T01:11:19.897Z,96249.69
2023-01-28T01:13:55.436Z,96245.88
2023-01-28T01:16:26.794Z,96249.41
2023-01-28T01:18:54.474Z,96248.78
2023-01-28T01:21:25.352Z,96248.94
2023-01-28T01:23:53.123Z,96249.16
2023-01-28T01:26:22.591Z,96254.78
2023-01-28T01:28:51.073Z,96256.09
2023-01-28T01:31:20.172Z,96265.75
2023-01-28T01:33:49.036Z,96262.38
2023-01-28T01:36:18.695Z,96260.59
2023-01-28T01:38:45.933Z,96260.75
2023-01-28T01:41:33.257Z,96257.41
2023-01-28T01:44:02.649Z,96252.44
2023-01-28T01:46:47.712Z,96260.94
2023-01-28T01:49:25.380Z,96262.72
2023-01-28T01:51:57.812Z,96259.34
2023-01-28T01:54:27.553Z,96268.38
2023-01-28T01:56:57.872Z,96258.72
2023-01-28T01:59:28.317Z,96270.59
2023-01-28T02:01:56.340Z,96259.97
2023-01-28T02:04:27.200Z,96256.44
2023-01-28T02:06:54.287Z,96250.16
2023-01-28T02:09:33.067Z,96258.69
2023-01-28T02:12:05.397Z,96260.09
2023-01-28T02:14:37.082Z,96251.25
2023-01-28T02:17:04.982Z,96251.88
2023-01-28T02:20:02.522Z,96250.91
2023-01-28T02:22:40.991Z,96242.84
2023-01-28T02:25:26.322Z,96257.31
2023-01-28T02:28:11.702Z,96266.00
2023-01-28T02:30:54.925Z,96261.81
2023-01-28T02:33:35.133Z,96271.47
2023-01-28T02:36:18.674Z,96273.38
2023-01-28T02:38:50.816Z,96257.31
2023-01-28T02:41:43.324Z,96265.66
2023-01-28T02:44:10.383Z,96265.31
2023-01-28T02:46:57.024Z,96266.91
2023-01-28T02:49:39.503Z,96266.59
2023-01-28T02:52:10.367Z,96265.63
2023-01-28T02:54:53.205Z,96269.59
2023-01-28T02:57:44.574Z,96263.84
2023-01-28T03:00:15.582Z,96268.81
2023-01-28T03:03:12.632Z,96253.88
2023-01-28T03:06:09.240Z,96260.47
2023-01-28T03:09:04.122Z,96258.41
2023-01-28T03:11:54.859Z,96261.78
2023-01-28T03:14:41.489Z,96268.53
2023-01-28T03:17:42.132Z,96266.13
2023-01-28T03:20:28.722Z,96257.94
2023-01-28T03:23:20.434Z,96263.09
2023-01-28T03:26:10.981Z,96269.84
2023-01-28T03:28:58.183Z,96263.38
2023-01-28T03:31:44.774Z,96270.13
2023-01-28T03:34:32.887Z,96264.81
2023-01-28T03:37:00.331Z,96268.19
2023-01-28T03:39:38.031Z,96270.78
2023-01-28T03:42:07.305Z,96268.63
2023-01-28T03:44:53.805Z,96260.13
2023-01-28T03:47:27.006Z,96266.59
2023-01-28T03:49:55.751Z,96268.53
2023-01-28T03:52:25.822Z,96263.38
2023-01-28T03:54:56.949Z,96272.88
2023-01-28T03:57:27.350Z,96267.38
2023-01-28T03:59:54.822Z,96272.88
2023-01-28T04:02:23.724Z,96266.59
2023-01-28T04:04:52.422Z,96260.97
2023-01-28T04:07:19.452Z,96258.97
2023-01-28T04:10:05.764Z,96259.25
2023-01-28T04:12:54.578Z,96262.81
2023-01-28T04:15:24.222Z,96267.63
2023-01-28T04:17:51.248Z,96268.28
2023-01-28T04:20:26.694Z,96264.75
2023-01-28T04:22:54.681Z,96273.56
2023-01-28T04:25:22.661Z,96275.31
2023-01-28T04:27:49.682Z,96271.13
2023-01-28T04:30:22.648Z,96275.31
2023-01-28T04:33:09.962Z,96276.28
2023-01-28T04:36:00.641Z,96278.06
2023-01-28T04:38:46.552Z,96275.31
2023-01-28T04:41:42.602Z,96280.03
2023-01-28T04:44:35.941Z,96280.66
2023-01-28T04:47:20.351Z,96294.34
2023-01-28T04:50:06.542Z,96300.66
2023-01-28T04:52:43.362Z,96298.69
2023-01-28T04:55:37.021Z,96300.47
2023-01-28T04:58:04.424Z,96310.94
2023-01-28T05:00:33.341Z,96314.47
2023-01-28T05:03:00.352Z,96312.69
2023-01-28T05:05:27.675Z,96320.88
2023-01-28T05:07:59.083Z,96320.72
2023-01-28T05:10:27.464Z,96321.34
2023-01-28T05:12:55.404Z,96318.94
2023-01-28T05:15:22.473Z,96328.09
2023-01-28T05:17:51.221Z,96325.19
2023-01-28T05:20:22.003Z,96327.28
2023-01-28T05:22:50.041Z,96330.66
2023-01-28T05:25:20.794Z,96334.47
2023-01-28T05:27:52.480Z,96331.09
2023-01-28T05:30:20.976Z,96336.72
2023-01-28T05:32:48.306Z,96335.56
2023-01-28T05:35:18.721Z,96343.13
2023-01-28T05:37:46.042Z,96342.97
2023-01-28T05:40:14.350Z,96341.19
2023-01-28T05:42:41.524Z,96348.44
2023-01-28T05:45:22.803Z,96343.28
2023-01-28T05:48:08.536Z,96351.81
2023-01-28T05:50:48.390Z,96358.91
2023-01-28T05:53:20.245Z,96356.31
2023-01-28T05:55:53.557Z,96358.13
2023-01-28T05:58:21.114Z,96360.84
2023-01-28T06:00:48.193Z,96365.47
2023-01-28T06:03:21.914Z,96356.97
2023-01-28T06:05:49.332Z,96354.38
2023-01-28T06:08:16.483Z,96350.22
2023-01-28T06:10:43.695Z,96360.97
2023-01-28T06:13:11.369Z,96362.41
2023-01-28T06:15:56.804Z,96370.94
2023-01-28T06:18:26.983Z,96377.53
2023-01-28T06:20:54.432Z,96377.53
2023-01-28T06:23:21.348Z,96380.09
2023-01-28T06:25:54.174Z,96390.88
2023-01-28T06:28:21.393Z,96378.97
2023-01-28T06:30:49.781Z,96381.53
2023-01-28T06:33:16.831Z,96369.78
2023-01-28T06:35:44.969Z,96385.06
2023-01-28T06:38:13.121Z,96382.97
2023-01-28T06:40:40.012Z,96389.09
2023-01-28T06:43:07.163Z,96387.13
2023-01-28T06:45:34.361Z,96387.31
2023-01-28T06:48:01.296Z,96399.84
2023-01-28T06:50:28.464Z,96399.69
2023-01-28T06:52:55.468Z,96403.06
2023-01-28T06:55:22.462Z,96410.00
2023-01-28T06:57:49.473Z,96406.44
2023-01-28T07:00:17.214Z,96409.63
2023-01-28T07:02:44.579Z,96412.84
2023-01-28T07:05:11.631Z,96416.22
2023-01-28T07:07:41.494Z,96413.50
2023-01-28T07:10:09.846Z,96412.53
2023-01-28T07:12:36.796Z,96418.47
2023-01-28T07:15:04.016Z,96421.50
2023-01-28T07:17:31.061Z,96420.69
2023-01-28T07:19:58.204Z,96422.47
2023-01-28T07:22:25.192Z,96426.00
2023-01-28T07:24:52.464Z,96426.00
2023-01-28T07:27:19.419Z,96424.09
2023-01-28T07:29:46.424Z,96430.19
2023-01-28T07:32:13.448Z,96424.25
2023-01-28T07:34:43.200Z,96430.84
2023-01-28T07:37:10.403Z,96424.09
2023-01-28T07:39:37.506Z,96427.50
2023-01-28T07:42:04.563Z,96435.06
2023-01-28T07:44:39.223Z,96432.66
2023-01-28T07:47:07.355Z,96436.97
2023-01-28T07:49:34.472Z,96435.19
2023-01-28T07:52:01.452Z,96443.88
2023-01-28T07:54:29.610Z,96440.34
2023-01-28T07:56:56.569Z,96446.28
2023-01-28T07:59:23.623Z,96440.38
2023-01-28T08:01:50.482Z,96445.19
2023-01-28T08:04:17.625Z,96445.66
2023-01-28T08:06:44.625Z,96449.50
2023-01-28T08:09:11.680Z,96450.13
2023-01-28T08:11:39.793Z,96456.88
2023-01-28T08:14:06.986Z,96445.97
2023-01-28T08:16:33.945Z,96454.16
2023-01-28T08:19:00.977Z,96451.25
2023-01-28T08:21:27.962Z,96457.84
2023-01-28T08:23:55.517Z,96456.69
2023-01-28T08:26:22.548Z,96459.81
2023-01-28T08:28:51.441Z,96465.44
2023-01-28T08:31:18.847Z,96466.25
2023-01-28T08:33:46.015Z,96477.53
2023-01-28T08:36:12.946Z,96478.50
2023-01-28T08:38:39.866Z,96474.75
2023-01-28T08:41:06.941Z,96472.69
2023-01-28T08:43:33.882Z,96481.34
2023-01-28T08:46:00.924Z,96480.28
2023-01-28T08:48:27.981Z,96483.88
2023-01-28T08:50:59.461Z,96490.09
2023-01-28T08:53:26.382Z,96482.06
2023-01-28T08:55:54.604Z,96496.25
2023-01-28T08:58:21.932Z,96488.09
2023-01-28T09:00:49.814Z,96490.13
2023-01-28T09:03:17.693Z,96496.22
2023-01-28T09:05:45.349Z,96496.84
2023-01-28T09:08:15.162Z,96499.88
2023-01-28T09:10:42.507Z,96504.19
2023-01-28T09:13:15.461Z,96503.56
2023-01-28T09:15:43.201Z,96508.97
2023-01-28T09:18:10.733Z,96505.44
2023-01-28T09:20:38.427Z,96497.72
2023-01-28T09:23:06.678Z,96505.16
2023-01-28T09:25:34.322Z,96511.28
2023-01-28T09:28:01.324Z,96513.34
2023-01-28T09:30:28.809Z,96513.47
2023-01-28T09:32:58.314Z,96525.66
2023-01-28T09:35:25.642Z,96512.94
2023-01-28T09:37:52.673Z,96514.88
2023-01-28T09:40:28.646Z,96516.44
2023-01-28T09:43:03.720Z,96517.94
2023-01-28T09:46:02.717Z,96522.25
2023-01-28T09:48:41.463Z,96508.91
2023-01-28T09:51:13.732Z,96515.47
2023-01-28T09:53:48.393Z,96516.00
2023-01-28T09:56:26.569Z,96506.81
2023-01-28T09:58:53.521Z,96502.72
2023-01-28T10:01:39.060Z,96515.41
2023-01-28T10:04:11.901Z,96509.47
2023-01-28T10:07:10.605Z,96504.97
2023-01-28T10:10:02.071Z,96511.28
2023-01-28T10:12:57.792Z,96504.16
2023-01-28T10:15:46.723Z,96499.78
2023-01-28T10:18:17.996Z,96502.69
2023-01-28T10:20:51.309Z,96508.16
2023-01-28T10:23:36.345Z,96493.97
2023-01-28T10:26:10.033Z,96498.53
2023-01-28T10:28:37.314Z,96500.75
2023-01-28T10:31:14.460Z,96495.91
2023-01-28T10:33:41.584Z,96503.19
2023-01-28T10:36:10.111Z,96487.28
2023-01-28T10:38:37.054Z,96494.75
2023-01-28T10:41:07.334Z,96494.53
2023-01-28T10:43:41.945Z,96488.59
2023-01-28T10:46:19.841Z,96484.41
2023-01-28T10:48:55.383Z,96491.03
2023-01-28T10:51:33.931Z,96498.25
2023-01-28T10:54:00.983Z,96499.19
2023-01-28T10:56:31.158Z,96495.59
2023-01-28T10:59:05.464Z,96490.44
2023-01-28T11:01:59.746Z,96488.97
2023-01-28T11:04:35.045Z,96480.63
2023-01-28T11:07:02.046Z,96485.44
2023-01-28T11:09:37.493Z,96480.41
2023-01-28T11:12:23.064Z,96487.91
2023-01-28T11:14:56.024Z,96494.56
2023-01-28T11:17:25.933Z,96489.47
2023-01-28T11:19:59.440Z,96487.16
2023-01-28T11:22:37.033Z,96488.78
2023-01-28T11:25:16.385Z,96484.94
2023-01-28T11:27:48.748Z,96482.53
2023-01-28T11:30:34.674Z,96474.75
2023-01-28T11:33:21.013Z,96479.03
2023-01-28T11:36:15.912Z,96472.00
2023-01-28T11:39:24.927Z,96465.09
2023-01-28T11:41:53.386Z,96477.00
2023-01-28T11:44:27.416Z,96472.63
2023-01-28T11:47:33.634Z,96470.66
2023-01-28T11:50:16.172Z,96465.41
2023-01-28T11:53:06.995Z,96461.00
2023-01-28T11:56:16.487Z,96465.63
2023-01-28T11:59:13.822Z,96456.22
2023-01-28T12:13:46.239Z,96456.28
2023-01-28T12:16:38.622Z,96460.44
2023-01-28T12:19:14.565Z,96457.34
2023-01-28T12:22:01.191Z,96456.50
2023-01-28T12:24:49.743Z,96456.09
2023-01-28T12:27:44.455Z,96460.88
2023-01-28T12:30:31.785Z,96459.22
2023-01-28T12:33:19.627Z,96455.16
2023-01-28T12:36:07.466Z,96455.25
2023-01-28T12:38:46.304Z,96456.69
2023-01-28T12:41:23.792Z,96464.06
2023-01-28T12:44:04.045Z,96461.34
2023-01-28T12:46:55.928Z,96457.78
2023-01-28T12:50:01.283Z,96466.16
2023-01-28T12:52:37.381Z,96467.56
2023-01-28T12:55:14.876Z,96467.13
2023-01-28T12:57:43.188Z,96459.03
2023-01-28T13:00:13.001Z,96461.97
2023-01-28T13:02:45.702Z,96468.69
2023-01-28T13:05:19.114Z,96466.44
2023-01-28T13:07:54.923Z,96467.00
2023-01-28T13:10:30.089Z,96467.28
2023-01-28T13:12:57.943Z,96467.56
2023-01-28T13:15:25.657Z,96461.25
2023-01-28T13:18:04.821Z,96472.03
2023-01-28T13:20:54.775Z,96468.13
2023-01-28T13:23:38.831Z,96470.97
2023-01-28T13:26:19.559Z,96476.13
2023-01-28T13:28:51.721Z,96484.53
2023-01-28T13:31:21.336Z,96485.31
2023-01-28T13:33:54.089Z,96490.13
2023-01-28T13:36:44.962Z,96484.63
2023-01-28T13:39:12.187Z,96496.38
2023-01-28T13:41:41.949Z,96493.16
2023-01-28T13:44:25.556Z,96496.38
2023-01-28T13:46:54.072Z,96496.09
2023-01-28T13:49:40.451Z,96508.81
2023-01-28T13:52:23.412Z,96504.63
2023-01-28T13:55:00.926Z,96507.22
2023-01-28T13:58:05.152Z,96516.91
2023-01-28T14:00:58.623Z,96515.81
2023-01-28T14:03:54.344Z,96518.94
2023-01-28T14:06:37.622Z,96523.91
2023-01-28T14:09:45.932Z,96528.34
2023-01-28T14:12:50.215Z,96527.53
2023-01-28T14:16:05.241Z,96526.41
2023-01-28T14:18:37.102Z,96527.00
2023-01-28T14:21:12.224Z,96526.84
2023-01-28T14:23:46.020Z,96532.97
2023-01-28T14:26:33.051Z,96543.81
2023-01-28T14:29:24.562Z,96540.88
2023-01-28T14:31:53.088Z,96546.38
2023-01-28T14:34:24.831Z,96541.88
2023-01-28T14:36:56.377Z,96547.38
2023-01-28T14:39:28.283Z,96546.88
2023-01-28T14:41:58.580Z,96548.00
2023-01-28T14:44:39.708Z,96554.47
2023-01-28T14:47:14.384Z,96555.00
2023-01-28T14:49:53.583Z,96561.75
2023-01-28T14:52:38.558Z,96563.53
2023-01-28T14:55:31.172Z,96561.28
2023-01-28T14:58:03.788Z,96567.41
2023-01-28T15:00:33.214Z,96580.50
2023-01-28T15:03:01.857Z,96571.47
2023-01-28T15:05:30.402Z,96574.41
2023-01-28T15:07:57.489Z,96579.25
2023-01-28T15:10:31.232Z,96571.19
2023-01-28T15:13:04.761Z,96577.03
2023-01-28T15:15:40.494Z,96580.91
2023-01-28T15:18:23.912Z,96584.28
2023-01-28T15:20:54.027Z,96574.34
2023-01-28T15:23:28.089Z,96582.22
2023-01-28T15:25:56.173Z,96593.16
2023-01-28T15:28:28.921Z,96581.91
2023-01-28T15:30:56.095Z,96595.44
2023-01-28T15:33:24.502Z,96596.75
2023-01-28T15:35:56.442Z,96596.75
2023-01-28T15:38:26.378Z,96601.44
2023-01-28T15:41:01.484Z,96599.22
2023-01-28T15:43:36.390Z,96610.81
2023-01-28T15:46:04.122Z,96609.03
2023-01-28T15:48:34.415Z,96607.94
2023-01-28T15:51:08.342Z,96605.19
2023-01-28T15:53:42.238Z,96609.88
2023-01-28T15:56:11.772Z,96615.31
2023-01-28T15:58:41.878Z,96616.47
2023-01-28T16:01:08.916Z,96616.47
2023-01-28T16:03:41.303Z,96616.81
2023-01-28T16:06:22.464Z,96617.97
2023-01-28T16:08:56.863Z,96623.88
2023-01-28T16:11:26.654Z,96633.41
2023-01-28T16:13:54.111Z,96636.16
2023-01-28T16:16:38.509Z,96631.16
2023-01-28T16:19:07.489Z,96638.09
2023-01-28T16:21:38.738Z,96641.31
2023-01-28T16:24:38.533Z,96652.91
2023-01-28T16:27:26.952Z,96644.03
2023-01-28T16:29:54.266Z,96644.84
2023-01-28T16:32:33.123Z,96644.38
2023-01-28T16:35:00.980Z,96646.13
2023-01-28T16:37:27.993Z,96649.72
2023-01-28T16:39:55.272Z,96655.81
2023-01-28T16:42:22.284Z,96653.09
2023-01-28T16:44:49.224Z,96654.84
2023-01-28T16:47:16.182Z,96659.22
2023-01-28T16:49:43.210Z,96660.31
2023-01-28T16:52:11.895Z,96652.28
2023-01-28T16:54:42.481Z,96666.75
2023-01-28T16:57:19.042Z,96670.78
2023-01-28T16:59:46.401Z,96659.03
2023-01-28T17:02:15.321Z,96666.13
2023-01-28T17:04:42.526Z,96675.94
2023-01-28T17:07:10.166Z,96664.34
2023-01-28T17:09:37.203Z,96669.16
2023-01-28T17:12:04.869Z,96665.63
2023-01-28T17:14:31.915Z,96675.13
2023-01-28T17:16:58.842Z,96675.44
2023-01-28T17:19:25.885Z,96682.19
2023-01-28T17:21:53.112Z,96688.81
2023-01-28T17:24:20.042Z,96686.06
2023-01-28T17:26:47.031Z,96685.09
2023-01-28T17:29:14.021Z,96692.19
2023-01-28T17:31:41.098Z,96690.56
2023-01-28T17:34:08.459Z,96693.31
2023-01-28T17:36:35.747Z,96692.19
2023-01-28T17:39:03.033Z,96693.97
2023-01-28T17:41:29.991Z,96693.00
2023-01-28T17:43:56.995Z,96698.31
2023-01-28T17:46:25.578Z,96702.50
2023-01-28T17:48:53.275Z,96699.91
2023-01-28T17:51:20.341Z,96704.91
2023-01-28T17:53:49.104Z,96703.16
2023-01-28T17:56:18.983Z,96712.47
2023-01-28T17:58:59.219Z,96709.25
2023-01-28T18:01:27.242Z,96719.41
2023-01-28T18:03:55.281Z,96729.53
2023-01-28T18:06:22.694Z,96724.72
2023-01-28T18:08:49.902Z,96720.38
2023-01-28T18:11:19.741Z,96722.78
2023-01-28T18:13:47.310Z,96718.41
2023-01-28T18:16:18.240Z,96722.78
2023-01-28T18:18:45.987Z,96722.78
2023-01-28T18:21:42.944Z,96727.31
2023-01-28T18:24:17.725Z,96729.72
2023-01-28T18:26:44.757Z,96737.63
2023-01-28T18:29:17.066Z,96733.09
2023-01-28T18:31:44.510Z,96740.19
2023-01-28T18:34:11.648Z,96744.19
2023-01-28T18:36:38.633Z,96747.44
2023-01-28T18:39:06.036Z,96747.59
2023-01-28T18:41:32.969Z,96747.78
2023-01-28T18:43:59.932Z,96741.00
2023-01-28T18:46:26.927Z,96749.69
2023-01-28T18:48:53.887Z,96745.81
2023-01-28T18:51:30.129Z,96746.63
2023-01-28T18:54:00.102Z,96749.69
2023-01-28T18:56:28.722Z,96755.50
2023-01-28T18:59:01.044Z,96750.00
2023-01-28T19:01:29.209Z,96753.88
2023-01-28T19:03:57.432Z,96749.69
2023-01-28T19:06:25.691Z,96755.31
2023-01-28T19:08:54.202Z,96745.19
2023-01-28T19:11:25.829Z,96753.75
2023-01-28T19:13:53.483Z,96765.66
2023-01-28T19:16:21.866Z,96764.50
2023-01-28T19:18:57.414Z,96771.13
2023-01-28T19:21:25.826Z,96774.66
2023-01-28T19:24:02.071Z,96777.59
2023-01-28T19:26:31.333Z,96783.69
2023-01-28T19:28:58.905Z,96778.56
2023-01-28T19:31:27.802Z,96780.47
2023-01-28T19:33:59.774Z,96784.00
2023-01-28T19:36:30.249Z,96775.97
2023-01-28T19:38:59.311Z,96792.25
2023-01-28T19:41:28.352Z,96782.91
2023-01-28T19:43:56.513Z,96780.78
2023-01-28T19:46:23.435Z,96788.03
2023-01-28T19:48:50.537Z,96787.88
2023-01-28T19:51:17.854Z,96793.81
2023-01-28T19:53:45.603Z,96788.34
2023-01-28T19:56:14.722Z,96799.16
2023-01-28T19:58:43.658Z,96793.19
2023-01-28T20:01:13.479Z,96799.78
2023-01-28T20:03:40.672Z,96792.72
2023-01-28T20:06:11.944Z,96795.13
2023-01-28T20:08:39.077Z,96798.16
2023-01-28T20:11:14.715Z,96803.03
2023-01-28T20:13:44.582Z,96798.97
2023-01-28T20:16:21.011Z,96801.09
2023-01-28T20:19:02.445Z,96797.22
2023-01-28T20:21:31.380Z,96806.56
2023-01-28T20:24:00.262Z,96808.47
2023-01-28T20:26:33.851Z,96812.69
2023-01-28T20:29:06.325Z,96808.47
2023-01-28T20:31:33.793Z,96812.53
2023-01-28T20:34:01.737Z,96823.63
2023-01-28T20:36:28.717Z,96818.63
2023-01-28T20:38:55.744Z,96819.28
2023-01-28T20:41:24.657Z,96826.88
2023-01-28T20:43:53.183Z,96822.69
2023-01-28T20:46:26.432Z,96831.03
2023-01-28T20:48:55.290Z,96829.91
2023-01-28T20:51:24.652Z,96828.94
2023-01-28T20:53:51.920Z,96828.63
2023-01-28T20:56:21.296Z,96838.13
2023-01-28T20:58:51.876Z,96834.25
2023-01-28T21:01:20.945Z,96832.34
2023-01-28T21:03:48.640Z,96838.44
2023-01-28T21:06:16.078Z,96844.91
2023-01-28T21:08:43.397Z,96837.47
2023-01-28T21:11:11.156Z,96835.06
2023-01-28T21:13:38.496Z,96831.84
2023-01-28T21:16:06.041Z,96844.25
2023-01-28T21:18:32.994Z,96833.13
2023-01-28T21:21:04.694Z,96836.19
2023-01-28T21:23:31.683Z,96838.78
2023-01-28T21:26:02.533Z,96845.22
2023-01-28T21:28:29.970Z,96849.41
2023-01-28T21:31:10.114Z,96851.97
2023-01-28T21:33:37.555Z,96848.44
2023-01-28T21:36:13.821Z,96851.97
2023-01-28T21:38:41.863Z,96858.75
2023-01-28T21:41:09.799Z,96853.91
2023-01-28T21:43:37.135Z,96860.53
2023-01-28T21:46:04.662Z,96859.56
2023-01-28T21:48:31.744Z,96851.03
2023-01-28T21:51:27.181Z,96858.59
2023-01-28T21:53:54.421Z,96859.25
2023-01-28T21:56:21.499Z,96861.47
2023-01-28T21:59:07.501Z,96858.75
2023-01-28T22:01:34.930Z,96859.56
2023-01-28T22:04:02.021Z,96857.28
2023-01-28T22:06:29.144Z,96865.19
2023-01-28T22:08:56.322Z,96865.97
2023-01-28T22:11:23.294Z,96863.59
2023-01-28T22:13:50.683Z,96868.25
2023-01-28T22:16:18.643Z,96870.84
2023-01-28T22:18:46.967Z,96866.78
2023-01-28T22:21:14.754Z,96871.31
2023-01-28T22:23:41.853Z,96873.56
2023-01-28T22:26:08.830Z,96873.09
2023-01-28T22:28:37.314Z,96879.38
2023-01-28T22:31:09.993Z,96873.09
2023-01-28T22:33:37.393Z,96869.72
2023-01-28T22:36:10.062Z,96874.38
2023-01-28T22:38:39.360Z,96870.31
2023-01-28T22:41:07.893Z,96867.59
2023-01-28T22:43:34.971Z,96870.84
2023-01-28T22:46:03.828Z,96873.91
2023-01-28T22:48:31.284Z,96880.84
2023-01-28T22:51:11.047Z,96881.13
2023-01-28T22:53:38.060Z,96871.31
2023-01-28T22:56:05.354Z,96871.00
2023-01-28T22:58:32.362Z,96866.50
2023-01-28T23:01:00.163Z,96877.63
2023-01-28T23:03:27.293Z,96879.69
2023-01-28T23:05:59.697Z,96877.44
2023-01-28T23:08:27.982Z,96875.19
2023-01-28T23:10:57.641Z,96872.59
2023-01-28T23:13:25.855Z,96871.78
2023-01-28T23:16:11.511Z,96870.03
2023-01-28T23:18:57.456Z,96878.06
2023-01-28T23:21:46.933Z,96873.25
2023-01-28T23:24:19.734Z,96879.84
2023-01-28T23:26:50.592Z,96872.13
2023-01-28T23:29:24.841Z,96869.22
2023-01-28T23:32:01.563Z,96873.25
2023-01-28T23:34:31.974Z,96880.50
2023-01-28T23:36:58.973Z,96881.97
2023-01-28T23:39:25.981Z,96879.22
2023-01-28T23:41:53.132Z,96884.19
2023-01-28T23:44:27.610Z,96881.81
2023-01-28T23:46:55.099Z,96882.44
2023-01-28T23:49:22.122Z,96875.50
2023-01-28T23:51:49.835Z,96878.06
2023-01-28T23:54:17.636Z,96881.63
2023-01-28T23:56:44.785Z,96892.59
2023-01-28T23:59:11.812Z,96893.25
